Stations météo

réclame
Mon MeteoGroup
Hano, Suède (2628): Température de l'air & dewpoint: 18.10.2018 07:00:00 - 24.10.2018 07:00:00 (CEST)Hano, Suède (2628): Vitesse du vent & gusts: 18.10.2018 07:00:00 - 24.10.2018 07:00:00 (CEST)Hano, Suède (2628): Direction du vent: 18.10.2018 07:00:00 - 24.10.2018 07:00:00 (CEST)Hano, Suède (2628): visibility: 18.10.2018 07:00:00 - 24.10.2018 07:00:00 (CEST)Hano, Suède (2628): Quantités de précipitations: 18.10.2018 07:00:00 - 24.10.2018 07:00:00 (CEST)
Date & Time tt [°C] td [°C] ff [km/h] ff [knt] fx [km/h] fx [knt] dd vv [km] rr [mm]
24.10.2018 07:00:00 - - - - - - - - -
24.10.2018 06:00:00 4,9 -1,1 45 25 68 37 NNW 50 0,0
24.10.2018 05:00:00 5,1 -0,3 48 26 73 40 NNW 50 0,0
24.10.2018 04:00:00 5,2 0,0 48 26 73 40 NNW 50 0,0
24.10.2018 03:00:00 5,4 0,2 51 28 72 39 NNW 50 0,0
24.10.2018 02:00:00 5,6 2,8 49 26 71 38 NNW 50 0,0
24.10.2018 01:00:00 5,8 3,1 48 26 63 34 NNW 50 0,0
24.10.2018 00:00:00 5,8 3,3 40 22 58 31 NNW 50 0,0
23.10.2018 23:00:00 5,8 3,6 27 15 65 35 NNW 50 0,0
23.10.2018 22:00:00 6,4 3,4 48 26 65 35 NNE 39 0,1
23.10.2018 21:00:00 9,3 5,8 36 19 51 28 WNW 26 0,0
23.10.2018 20:00:00 9,3 5,7 36 19 63 34 WNW 32 0,0
23.10.2018 19:00:00 7,6 4,9 38 21 63 34 NNW 33 0,6
23.10.2018 18:00:00 10,1 5,1 41 22 80 43 WNW 44 0,0
23.10.2018 17:00:00 10,5 6,1 40 21 80 43 WNW 34 0,0
23.10.2018 16:00:00 11,2 6,9 35 19 65 35 WNW 20 0,0
23.10.2018 15:00:00 11,2 7,3 44 24 74 40 WNW 17 0,0
23.10.2018 14:00:00 10,9 7,2 49 27 74 40 WNW 17 0,0
23.10.2018 13:00:00 11,4 7,9 53 29 74 40 WNW 24 0,0
23.10.2018 12:00:00 9,8 8,1 48 26 74 40 W 13 0,2
23.10.2018 11:00:00 10,0 8,4 50 27 74 40 W 10 0,3
23.10.2018 10:00:00 9,8 8,7 44 24 69 37 W 11 0,5
23.10.2018 09:00:00 9,6 8,5 48 26 74 40 W 9 0,7
23.10.2018 08:00:00 9,2 8,3 58 31 78 42 W 8 0,3
23.10.2018 07:00:00 8,6 7,7 56 30 78 42 WSW 11 0,1
23.10.2018 06:00:00 8,4 7,3 54 29 76 41 WSW 10 0,4
23.10.2018 05:00:00 8,1 7,2 58 31 76 41 WSW 6 0,6
23.10.2018 04:00:00 7,7 6,6 57 31 73 40 WSW 7 0,9
23.10.2018 03:00:00 7,4 6,0 57 31 73 40 WSW 4,3 1,0
23.10.2018 02:00:00 7,8 5,8 46 25 61 33 WSW 8 0,0
23.10.2018 01:00:00 8,2 5,0 46 25 57 31 WSW 16 0,0
23.10.2018 00:00:00 8,1 4,9 41 22 55 30 WSW 16 0,0
22.10.2018 23:00:00 8,3 4,3 41 22 55 30 W 17 0,0
22.10.2018 22:00:00 8,4 4,2 40 22 51 28 W 17 0,0
22.10.2018 21:00:00 8,2 4,4 30 16 38 21 W 17 0,0
22.10.2018 20:00:00 8,4 3,8 24 13 39 21 W 17 0,0
22.10.2018 19:00:00 9,0 3,4 23 13 53 28 W 21 0,0
22.10.2018 18:00:00 9,5 3,5 31 17 64 35 WNW 22 0,0
22.10.2018 17:00:00 10,4 2,5 41 22 64 35 WNW 26 0,0
22.10.2018 16:00:00 10,8 2,6 46 25 71 39 WNW 22 0,0
22.10.2018 15:00:00 11,4 1,3 50 27 71 39 NW 28 0,0
22.10.2018 14:00:00 11,8 1,7 41 22 66 36 WNW 24 0,0
22.10.2018 13:00:00 11,3 1,5 47 26 70 38 WNW 32 0,0
22.10.2018 12:00:00 11,3 2,6 44 24 70 38 WNW 21 0,0
22.10.2018 11:00:00 10,5 5,9 36 19 53 29 WNW 20 0,0
22.10.2018 10:00:00 10,3 6,3 34 18 46 25 WNW 22 0,0
22.10.2018 09:00:00 9,5 6,8 29 16 47 25 W 20 0,0
22.10.2018 08:00:00 9,9 7,1 26 14 47 25 WNW 20 0,0
22.10.2018 07:00:00 10,8 7,7 31 17 45 24 WNW 31 0,0
22.10.2018 06:00:00 11,3 9,6 35 19 45 24 W 50 0,1
22.10.2018 05:00:00 10,4 9,9 31 17 45 24 WSW 1,4 0,0
22.10.2018 04:00:00 10,5 10,0 36 19 53 29 WSW 1,6 0,0
22.10.2018 03:00:00 10,8 10,3 37 20 53 29 WSW 1,5 0,0
22.10.2018 02:00:00 11,0 10,5 39 21 51 27 WSW 1,8 0,1
22.10.2018 01:00:00 10,8 10,5 34 19 46 25 WSW 1,4 0,0
22.10.2018 00:00:00 11,2 10,4 34 19 54 29 SW 2,6 0,0
21.10.2018 23:00:00 11,3 10,5 34 19 55 30 SW 3,0 0,0
21.10.2018 22:00:00 11,2 10,6 45 25 55 30 SW 4,4 0,0
21.10.2018 21:00:00 11,1 10,3 35 19 44 24 SW 8 0,0
21.10.2018 20:00:00 11,0 10,1 34 18 44 24 SW 12 0,0
21.10.2018 19:00:00 11,0 9,8 29 16 41 22 SW 17 0,0
21.10.2018 18:00:00 11,0 9,6 31 17 41 22 SW 19 0,0
21.10.2018 17:00:00 11,1 9,4 29 16 39 21 SW 22 0,0
21.10.2018 16:00:00 11,1 9,2 27 15 34 18 SW 19 0,0
21.10.2018 15:00:00 11,3 8,3 24 13 34 19 SW 31 0,0
21.10.2018 14:00:00 11,3 8,2 25 14 34 19 SW 33 0,0
21.10.2018 13:00:00 10,8 8,0 23 12 33 18 SW 27 0,0
21.10.2018 12:00:00 10,5 8,1 27 15 33 18 WSW 20 0,0
21.10.2018 11:00:00 9,8 8,4 21 11 28 15 WSW 20 0,0
21.10.2018 10:00:00 8,9 8,4 22 12 27 14 WSW 10 0,0
21.10.2018 09:00:00 8,3 7,9 13 7 18 10 WSW 11 0,0
21.10.2018 08:00:00 7,1 6,8 13 7 20 11 WSW 10 0,0
21.10.2018 07:00:00 6,9 6,5 14 8 21 12 W 10 0,0
21.10.2018 06:00:00 7,4 7,0 16 9 21 12 W 13 0,0
21.10.2018 05:00:00 7,0 6,7 10 5 16 9 W 10 0,0
21.10.2018 04:00:00 7,0 6,4 7 4 16 9 W 8 0,0
21.10.2018 03:00:00 7,5 6,9 8 4 16 9 W 14 0,0
21.10.2018 02:00:00 8,0 7,2 10 5 21 12 WNW 24 0,0
21.10.2018 01:00:00 7,9 7,0 14 7 21 12 NW 23 0,0
21.10.2018 00:00:00 8,3 7,2 16 9 23 12 NNW 24 0,0
20.10.2018 23:00:00 8,5 7,3 16 9 25 13 NW 27 0,0
20.10.2018 22:00:00 8,9 7,7 19 10 29 16 WNW 25 0,0
20.10.2018 21:00:00 9,4 7,8 20 11 29 16 NW 32 0,0
20.10.2018 20:00:00 10,1 8,2 19 10 26 14 WNW 26 0,0
20.10.2018 19:00:00 9,9 9,1 16 8 23 13 W 13 0,0
20.10.2018 18:00:00 10,3 8,7 14 8 23 13 W 21 0,0
20.10.2018 17:00:00 10,1 8,4 14 8 21 11 W 26 0,0
20.10.2018 16:00:00 10,3 8,4 14 8 21 11 WSW 23 0,0
20.10.2018 15:00:00 10,5 8,1 15 8 21 11 W 26 0,0
20.10.2018 14:00:00 10,2 8,5 16 9 21 11 W 30 0,0
20.10.2018 13:00:00 9,5 7,1 10 5 24 13 W 29 0,0
20.10.2018 12:00:00 9,7 6,6 13 7 24 13 W 45 0,0
20.10.2018 11:00:00 9,5 6,4 17 9 25 13 W 38 0,0
20.10.2018 10:00:00 9,3 6,2 20 11 26 14 W 39 0,0
20.10.2018 09:00:00 8,9 6,2 19 11 26 14 W 43 0,0
20.10.2018 08:00:00 8,6 6,4 19 11 26 14 W 38 0,0
20.10.2018 07:00:00 8,6 6,7 18 10 25 14 W 29 0,0
20.10.2018 06:00:00 8,5 7,0 20 11 24 13 W 29 0,0
20.10.2018 05:00:00 8,6 6,6 14 7 22 12 W 33 0,0
20.10.2018 04:00:00 8,2 6,8 11 6 24 13 W 23 0,0
20.10.2018 03:00:00 8,4 7,0 18 10 24 13 W 22 0,0
20.10.2018 02:00:00 7,8 6,6 16 9 22 12 W 20 0,0
20.10.2018 01:00:00 7,4 6,2 15 8 21 11 W 20 0,0
20.10.2018 00:00:00 7,3 5,8 14 7 20 11 W 26 0,0
19.10.2018 23:00:00 8,4 6,0 13 7 24 13 W 36 0,0
19.10.2018 22:00:00 8,5 6,6 14 8 24 13 W 32 0,0
19.10.2018 21:00:00 9,2 7,5 17 9 19 11 SW 46 0,0
19.10.2018 20:00:00 9,1 5,9 14 8 18 10 SSW 43 0,0
19.10.2018 19:00:00 8,9 5,6 14 7 16 8 SW 50 0,0
19.10.2018 18:00:00 9,0 6,1 11 6 15 8 SSW 49 0,0
19.10.2018 17:00:00 10,2 6,2 8 4 16 9 SW 50 0,0
19.10.2018 16:00:00 10,2 6,9 11 6 18 10 WSW 44 0,0
19.10.2018 15:00:00 10,1 6,3 12 6 18 10 SW 34 0,0
19.10.2018 14:00:00 10,2 5,8 10 6 14 8 SW 32 0,0
19.10.2018 13:00:00 11,1 5,2 5 3 9 5 SSW 41 0,0
19.10.2018 12:00:00 9,6 5,4 5 3 9 5 SE 40 0,0
19.10.2018 11:00:00 7,8 5,1 0 0 11 6 N 44 0,0
19.10.2018 10:00:00 7,7 5,2 7 4 15 8 N 20 0,0
19.10.2018 09:00:00 6,7 4,7 8 4 17 9 N 25 0,0
19.10.2018 08:00:00 5,9 4,5 11 6 17 9 N 41 0,0
19.10.2018 07:00:00 6,2 5,0 9 5 11 6 N 50 0,0
19.10.2018 06:00:00 6,1 4,9 8 4 14 7 N 50 0,0
19.10.2018 05:00:00 6,4 4,9 8 5 14 8 NNE 46 0,0
19.10.2018 04:00:00 6,4 5,0 10 6 14 8 N 37 0,0
19.10.2018 03:00:00 6,8 5,0 9 5 16 9 N 45 0,0
19.10.2018 02:00:00 7,1 5,2 10 6 22 12 N 35 0,0
19.10.2018 01:00:00 7,4 5,0 11 6 25 14 N 50 0,0
19.10.2018 00:00:00 8,2 5,1 17 9 27 15 NNW 46 0,0
18.10.2018 23:00:00 8,7 4,9 19 11 27 15 NNW 50 0,0
18.10.2018 22:00:00 9,2 5,2 17 9 23 13 NNW 45 0,0
18.10.2018 21:00:00 9,8 4,8 21 11 27 15 NNW 50 0,0
18.10.2018 20:00:00 10,8 6,2 19 10 32 17 NNW 50 0,0
18.10.2018 19:00:00 12,0 6,5 22 12 32 18 N 41 0,0
18.10.2018 18:00:00 12,8 7,0 26 14 32 18 N 44 0,0
18.10.2018 17:00:00 13,9 7,0 19 10 32 17 N 47 0,0
18.10.2018 16:00:00 15,1 6,9 23 12 34 19 NNW 42 0,0
18.10.2018 15:00:00 15,3 7,6 19 10 39 21 NNW 43 0,0
18.10.2018 14:00:00 14,0 9,8 27 15 39 21 NNW 32 0,0
18.10.2018 13:00:00 13,4 11,1 26 14 34 18 NNW 10 0,0
18.10.2018 12:00:00 12,1 11,8 15 8 21 12 NNW 1,8 0,3
18.10.2018 11:00:00 11,8 11,6 15 8 25 13 NW 1,5 0,0
18.10.2018 10:00:00 10,9 10,7 11 6 25 13 NW 1,0 0,0
18.10.2018 09:00:00 10,1 9,9 18 10 21 11 NW 0,1 0,0
18.10.2018 08:00:00 10,4 9,9 11 6 16 9 NW 2,9 0,0
18.10.2018 07:00:00 10,0 9,7 11 6 15 8 WNW 6 0,0

tt = Température de l'air
td = dewpoint
ff = Vitesse du vent
fx = gusts
dd = Direction du vent
vv = visibility
rr = Quantités de précipitations

stations d'obs. à proximité